Track Филиппенко Мирон

Time Latitude Longitude Accuracy (66% radius in meters) Altitude (meters) Speed (km/hour) Bearing (degrees) Battery (%) GPS flag
09:48:10 55.737892 37.299007 5 172 0 304.56338500977 70 1 delete
09:47:58 55.737892 37.299007 5 179 0 304.56338500977 70 1 delete
09:47:46 55.737892 37.299007 5 176 0 304.56338500977 70 1 delete
09:47:35 55.737892 37.299007 5 174 0 304.56338500977 70 1 delete
09:47:23 55.737892 37.299007 5 175 0 304.56338500977 70 1 delete
09:47:11 55.737892 37.299007 5 176 0 304.56338500977 70 1 delete
09:46:57 55.737892 37.299007 5 177 0 304.56338500977 70 1 delete
09:46:46 55.737892 37.299007 5 178 0 304.56338500977 70 1 delete
09:46:34 55.737892 37.299007 5 184 0 304.56338500977 70 1 delete
09:46:22 55.737892 37.299007 5 178 0 304.56338500977 70 1 delete
09:46:10 55.737892 37.299007 5 179 0 304.56338500977 70 1 delete
09:45:59 55.737892 37.299007 5 181 0 304.56338500977 73 1 delete
09:45:47 55.737892 37.299007 5 179 0 304.56338500977 73 1 delete
09:45:35 55.737891 37.299012 5 170 0 13.047253608704 73 1 delete
09:45:23 55.737891 37.299012 5 167 0 13.047253608704 73 1 delete
09:45:11 55.737891 37.299012 5 170 0 13.047253608704 73 1 delete
09:44:59 55.737888 37.299011 5 175 0 194.08349609375 73 1 delete
09:44:47 55.737888 37.299011 5 173 0 194.08349609375 73 1 delete
09:44:35 55.737888 37.299011 5 173 0 194.08349609375 73 1 delete
09:44:23 55.737888 37.299011 5 171 0 194.08349609375 73 1 delete
09:44:12 55.737888 37.299011 10 162 0 194.08349609375 73 1 delete
09:44:00 55.737888 37.299011 5 171 0 194.08349609375 73 1 delete
09:43:48 55.737888 37.299011 10 169 0 194.08349609375 73 1 delete
09:43:36 55.737888 37.299011 5 171 0 194.08349609375 73 1 delete
09:43:24 55.737888 37.299011 5 171 0 194.08349609375 73 1 delete
09:43:13 55.737888 37.299011 5 170 0 194.08349609375 73 1 delete
09:43:01 55.737888 37.299011 5 170 0 194.08349609375 73 1 delete
09:42:49 55.737888 37.299011 10 171 0 194.08349609375 73 1 delete
09:42:37 55.737888 37.299011 5 169 0 194.08349609375 73 1 delete
09:42:25 55.737888 37.299011 5 170 0 194.08349609375 73 1 delete
09:42:14 55.737888 37.299011 5 170 0 194.08349609375 73 1 delete
09:42:02 55.737888 37.299011 5 168 0 194.08349609375 73 1 delete
09:41:50 55.737888 37.299011 5 173 0 194.08349609375 73 1 delete
09:41:38 55.737888 37.299011 5 172 0 194.08349609375 73 1 delete
09:41:26 55.737888 37.299011 5 168 0 194.08349609375 73 1 delete
09:41:15 55.737888 37.299011 10 172 0 194.08349609375 73 1 delete
09:41:03 55.737888 37.299011 5 178 0 194.08349609375 73 1 delete
09:40:51 55.737888 37.299011 5 178 0 194.08349609375 73 1 delete
09:40:39 55.737888 37.299011 5 171 0 194.08349609375 73 1 delete
09:40:27 55.737888 37.299011 10 170 0 194.08349609375 73 1 delete
09:40:16 55.737888 37.299011 5 167 0 194.08349609375 73 1 delete
09:40:04 55.737888 37.299011 5 176 0 194.08349609375 73 1 delete
09:39:52 55.737888 37.299011 5 181 0 194.08349609375 73 1 delete
09:39:40 55.737888 37.299011 10 182 0 194.08349609375 73 1 delete
09:39:28 55.737888 37.299012 5 176 0.36591097712517 194.08349609375 73 1 delete
09:39:17 55.737889 37.299045 5 174 0 206.7854309082 73 1 delete
09:39:05 55.737891 37.299048 5 163 0 149.45001220703 73 1 delete
09:39:04 55.737891 37.299048 5 163 0 149.45001220703 73 1 delete
09:38:53 55.737904 37.299048 5 161 0.54500210285187 149.45001220703 73 1 delete
09:38:41 55.737922 37.299042 5 169 0 168.31562805176 73 1 delete